Denver, IN (46926)

7:39 PM EDT on March 23, 2017 (GMT -0400)
K9DCC 1150 N. | | Change Station

Elev 850 ft 40.93 °N, 86.16 °W | Updated 23 seconds ago

Overcast
Overcast
48.7 °F
Feels Like 47 °F
N
4.7
Wind Variable Wind from ESE

Today
High -- | Low -- °F
--% Chance of Precip.
Yesterday
High -- | Low -- °F
Precip. -- in
Pressure 30.20 in
Visibility 10.0 miles
Clouds Mostly Cloudy 4400 ft
Mostly Cloudy 6000 ft
Windchill 47 °F
Dew Point 32 °F
Humidity 53%
Rainfall 0.00 in
Snow Depth Not available.
7:42 AM 7:59 PM
Waning Crescent, 20% visible
METAR KRCR 232315Z AUTO 12007KT 10SM BKN044 BKN060 10/M02 A3020 RMK AO2
Pressure 30.20 in
Visibility 10.0 miles
Clouds Mostly Cloudy 4400 ft
Mostly Cloudy 6000 ft
Windchill 47 °F
Dew Point 32 °F
Humidity 53%
Rainfall 0.00 in
Snow Depth Not available.
7:42 AM 7:59 PM
Waning Crescent, 20% visible
METAR KRCR 232315Z AUTO 12007KT 10SM BKN044 BKN060 10/M02 A3020 RMK AO2

Get Severe Weather Alerts

Thanks for signing up!

Be on the lookout for a verification email in your inbox.

You'll start receiving the daily forecast at 8 AM.

×

10-Day Weather Forecast

Almanac

Astronomy

Mar. 23, 2017 Rise Set
Actual Time
Civil Twilight
Nautical Twilight
Astronomical Twilight
Moon
Length of Visible Light
Length of Day
Tomorrow will be .
, % of the Moon is Illuminated

Today's Extremes

State Highs State Lows

Community

WunderPhotos

Upload Photos

1,962,540 photos uploaded!

WunderBlog® & News

Nearby

Air Quality

  Air Quality AQ Index Pollutant
Not available.

Snow Depth

Station Depth Elevation

Earthquake Activity

City Distance Mag. Time & Date
Minimum magnitude displayed is 2.5.

Earthquake Activity

City Distance Mag. Time & Date
Minimum magnitude displayed is 2.5.

Coastal Water Temperatures

Place Temperature

Stations

Nearby Weather Stations

Station Location Temp. Windchill Dew Point Humidity Wind Precip. Elev Updated Type
                   

Watches & Warnings

There are currently no watches in effect.